createdAt,value
2022-10-31T00:01:28.184Z,6.90
2022-10-31T00:03:56.301Z,7.20
2022-10-31T00:06:36.133Z,7.03
2022-10-31T00:09:07.077Z,6.80
2022-10-31T00:11:35.075Z,7.10
2022-10-31T00:14:03.251Z,6.27
2022-10-31T00:16:31.613Z,6.40
2022-10-31T00:19:01.933Z,6.57
2022-10-31T00:21:31.839Z,6.37
2022-10-31T00:23:59.971Z,6.83
2022-10-31T00:26:29.287Z,6.87
2022-10-31T00:28:57.055Z,5.97
2022-10-31T00:31:24.778Z,6.03
2022-10-31T00:33:53.086Z,5.97
2022-10-31T00:36:21.897Z,6.03
2022-10-31T00:38:51.067Z,6.50
2022-10-31T00:41:19.570Z,6.70
2022-10-31T00:43:47.891Z,6.73
2022-10-31T00:46:15.826Z,6.67
2022-10-31T00:48:43.690Z,6.10
2022-10-31T00:51:12.038Z,6.37
2022-10-31T00:53:41.321Z,6.63
2022-10-31T00:56:11.066Z,6.20
2022-10-31T00:58:39.117Z,6.40
2022-10-31T01:01:08.264Z,6.90
2022-10-31T01:03:36.957Z,6.77
2022-10-31T01:06:07.242Z,6.00
2022-10-31T01:08:35.206Z,6.73
2022-10-31T01:11:07.219Z,7.20
2022-10-31T01:13:36.943Z,7.20
2022-10-31T01:16:07.240Z,6.30
2022-10-31T01:18:35.342Z,6.17
2022-10-31T01:21:06.428Z,5.97
2022-10-31T01:23:34.474Z,6.80
2022-10-31T01:26:04.604Z,6.93
2022-10-31T01:28:34.903Z,6.73
2022-10-31T01:31:06.072Z,6.07
2022-10-31T01:33:36.128Z,6.93
2022-10-31T01:36:13.225Z,6.70
2022-10-31T01:38:41.026Z,6.30
2022-10-31T01:41:08.923Z,6.73
2022-10-31T01:43:49.699Z,7.10
2022-10-31T01:46:22.576Z,6.87
2022-10-31T01:48:51.554Z,6.93
2022-10-31T01:51:24.852Z,6.33
2022-10-31T01:53:56.746Z,6.93
2022-10-31T01:56:24.877Z,6.23
2022-10-31T01:58:54.693Z,6.60
2022-10-31T02:01:24.111Z,5.80
2022-10-31T02:03:52.095Z,6.20
2022-10-31T02:06:31.474Z,6.47
2022-10-31T02:09:01.029Z,6.57
2022-10-31T02:11:30.259Z,6.37
2022-10-31T02:13:58.375Z,5.87
2022-10-31T02:16:28.111Z,6.07
2022-10-31T02:18:56.900Z,6.80
2022-10-31T02:21:33.789Z,5.90
2022-10-31T02:24:34.268Z,6.23
2022-10-31T02:27:17.201Z,5.67
2022-10-31T02:30:05.208Z,5.93
2022-10-31T02:32:45.042Z,5.93
2022-10-31T02:35:21.524Z,5.40
2022-10-31T02:37:55.603Z,5.93
2022-10-31T02:40:28.977Z,5.23
2022-10-31T02:43:22.832Z,5.50
2022-10-31T02:45:57.209Z,5.97
2022-10-31T02:48:29.899Z,5.67
2022-10-31T02:51:00.366Z,5.90
2022-10-31T02:53:28.797Z,5.70
2022-10-31T02:56:01.405Z,6.17
2022-10-31T02:58:33.430Z,5.90
2022-10-31T03:01:30.026Z,6.17
2022-10-31T03:04:13.246Z,5.70
2022-10-31T03:06:51.552Z,5.77
2022-10-31T03:09:26.565Z,6.80
2022-10-31T03:12:04.329Z,6.17
2022-10-31T03:14:41.241Z,6.73
2022-10-31T03:17:14.943Z,5.30
2022-10-31T03:19:47.475Z,6.03
2022-10-31T03:22:19.700Z,6.00
2022-10-31T03:24:49.871Z,5.87
2022-10-31T03:27:22.576Z,5.70
2022-10-31T03:29:52.556Z,6.00
2022-10-31T03:32:25.449Z,6.10
2022-10-31T03:34:59.038Z,5.70
2022-10-31T03:37:29.682Z,6.50
2022-10-31T03:40:01.061Z,5.83
2022-10-31T03:42:32.478Z,5.73
2022-10-31T03:45:03.672Z,5.57
2022-10-31T03:47:31.670Z,6.47
2022-10-31T03:50:02.794Z,6.20
2022-10-31T03:52:38.665Z,6.57
2022-10-31T03:55:11.530Z,6.03
2022-10-31T03:57:44.290Z,5.90
2022-10-31T04:00:15.035Z,5.23
2022-10-31T04:02:55.719Z,5.60
2022-10-31T04:05:30.189Z,5.87
2022-10-31T04:08:02.742Z,5.90
2022-10-31T04:10:34.989Z,6.30
2022-10-31T04:13:07.101Z,5.90
2022-10-31T04:15:46.846Z,6.07
2022-10-31T04:18:14.792Z,5.40
2022-10-31T04:20:44.058Z,6.17
2022-10-31T04:23:21.307Z,6.20
2022-10-31T04:25:50.309Z,5.70
2022-10-31T04:30:53.114Z,6.87
2022-10-31T04:33:21.146Z,6.07
2022-10-31T04:35:50.370Z,6.30
2022-10-31T04:38:18.197Z,6.23
2022-10-31T04:40:47.237Z,6.57
2022-10-31T04:43:33.511Z,5.83
2022-10-31T04:46:02.515Z,5.73
2022-10-31T04:48:30.507Z,6.43
2022-10-31T04:51:02.679Z,6.32
2022-10-31T04:53:30.467Z,6.57
2022-10-31T04:56:27.094Z,5.77
2022-10-31T04:59:00.685Z,7.17
2022-10-31T05:01:32.558Z,6.10
2022-10-31T05:04:01.865Z,5.90
2022-10-31T05:06:31.873Z,6.10
2022-10-31T05:08:59.694Z,5.65
2022-10-31T05:11:27.581Z,6.60
2022-10-31T05:14:00.187Z,6.53
2022-10-31T05:17:06.126Z,7.00
2022-10-31T05:20:12.589Z,6.67
2022-10-31T05:23:00.718Z,6.10
2022-10-31T05:25:30.798Z,5.90
2022-10-31T05:27:59.198Z,6.87
2022-10-31T05:30:29.743Z,6.83
2022-10-31T05:32:57.834Z,6.87
2022-10-31T05:35:51.721Z,6.23
2022-10-31T05:38:41.167Z,6.73
2022-10-31T05:41:30.545Z,6.70
2022-10-31T05:44:07.883Z,6.87
2022-10-31T05:46:48.967Z,7.23
2022-10-31T05:49:51.941Z,6.73
2022-10-31T05:52:38.406Z,6.63
2022-10-31T05:55:17.803Z,6.73
2022-10-31T05:58:01.201Z,7.80
2022-10-31T06:00:29.898Z,6.97
2022-10-31T06:05:52.251Z,6.78
2022-10-31T06:08:25.121Z,7.03
2022-10-31T06:10:54.813Z,6.83
2022-10-31T06:13:42.461Z,6.70
2022-10-31T06:16:18.019Z,7.13
2022-10-31T06:18:47.578Z,6.63
2022-10-31T06:21:18.910Z,6.93
2022-10-31T06:23:49.333Z,6.57
2022-10-31T06:26:31.582Z,6.33
2022-10-31T06:29:04.210Z,7.40
2022-10-31T06:31:58.310Z,6.73
2022-10-31T06:34:26.082Z,6.70
2022-10-31T06:36:54.177Z,7.00
2022-10-31T06:39:25.573Z,7.30
2022-10-31T06:41:58.429Z,6.43
2022-10-31T06:44:28.302Z,7.20
2022-10-31T06:46:56.130Z,7.40
2022-10-31T06:49:42.158Z,8.03
2022-10-31T06:52:14.342Z,6.87
2022-10-31T06:54:42.630Z,7.27
2022-10-31T06:57:11.886Z,7.33
2022-10-31T06:59:40.712Z,8.35
2022-10-31T07:02:37.398Z,7.97
2022-10-31T07:05:07.578Z,7.40
2022-10-31T07:07:35.333Z,8.45
2022-10-31T07:10:04.420Z,7.73
2022-10-31T07:12:57.054Z,8.13
2022-10-31T07:15:25.016Z,7.53
2022-10-31T07:17:54.221Z,8.07
2022-10-31T07:20:22.989Z,7.73
2022-10-31T07:22:50.996Z,7.47
2022-10-31T07:25:20.020Z,7.63
2022-10-31T07:28:12.490Z,7.77
2022-10-31T07:30:40.751Z,8.40
2022-10-31T07:33:10.728Z,7.37
2022-10-31T07:36:04.568Z,7.17
2022-10-31T07:38:33.478Z,8.97
2022-10-31T07:41:05.707Z,7.87
2022-10-31T07:43:40.638Z,8.10
2022-10-31T07:46:30.965Z,8.63
2022-10-31T07:49:17.318Z,7.83
2022-10-31T07:52:03.534Z,8.60
2022-10-31T07:54:51.517Z,7.97
2022-10-31T07:57:25.362Z,8.53
2022-10-31T07:59:55.198Z,8.15
2022-10-31T08:02:24.566Z,8.20
2022-10-31T08:05:12.284Z,7.93
2022-10-31T08:08:10.154Z,8.87
2022-10-31T08:10:38.993Z,9.30
2022-10-31T08:13:08.683Z,9.88
2022-10-31T08:15:42.296Z,9.00
2022-10-31T08:18:14.933Z,10.48
2022-10-31T08:20:44.917Z,11.13
2022-10-31T08:23:14.106Z,10.20
2022-10-31T08:25:43.821Z,10.25
2022-10-31T08:28:13.037Z,10.77
2022-10-31T08:30:44.740Z,10.00
2022-10-31T08:33:31.164Z,10.53
2022-10-31T08:36:19.083Z,9.60
2022-10-31T08:38:57.707Z,9.97
2022-10-31T08:41:29.432Z,10.10
2022-10-31T08:43:57.712Z,9.80
2022-10-31T08:46:26.841Z,9.83
2022-10-31T08:48:56.209Z,9.90
2022-10-31T08:51:24.752Z,9.10
2022-10-31T08:53:55.769Z,9.77
2022-10-31T08:56:32.405Z,8.93
2022-10-31T08:59:02.193Z,8.82
2022-10-31T09:01:47.143Z,8.87
2022-10-31T09:04:17.882Z,8.40
2022-10-31T09:07:08.025Z,9.35
2022-10-31T09:09:34.209Z,8.50
2022-10-31T09:12:01.964Z,8.17
2022-10-31T09:14:58.169Z,9.57
2022-10-31T09:17:35.053Z,10.68
2022-10-31T09:20:19.430Z,11.20
2022-10-31T09:22:47.142Z,11.00
2022-10-31T09:25:16.459Z,10.67
2022-10-31T09:27:50.605Z,10.03
2022-10-31T09:30:18.478Z,10.47
2022-10-31T09:32:47.575Z,10.07
2022-10-31T09:35:17.312Z,9.45
2022-10-31T09:37:47.174Z,8.98
2022-10-31T09:40:14.951Z,8.70
2022-10-31T09:43:04.703Z,9.38
2022-10-31T09:45:38.297Z,9.32
2022-10-31T09:48:30.206Z,8.90
2022-10-31T09:51:25.257Z,8.83
2022-10-31T09:54:11.034Z,10.10
2022-10-31T09:56:39.977Z,9.00
2022-10-31T09:59:15.289Z,8.73
2022-10-31T10:01:49.797Z,8.83
2022-10-31T10:04:38.307Z,8.40
2022-10-31T10:07:21.201Z,9.30
2022-10-31T10:10:16.614Z,9.20
2022-10-31T10:13:30.271Z,8.17
2022-10-31T10:16:16.722Z,7.93
2022-10-31T10:18:58.258Z,7.60
2022-10-31T10:21:38.829Z,7.13
2022-10-31T10:24:19.785Z,7.90
2022-10-31T10:26:55.911Z,7.97
2022-10-31T10:29:33.396Z,6.95
2022-10-31T10:32:07.699Z,7.60
2022-10-31T10:34:39.510Z,7.63
2022-10-31T10:37:24.084Z,7.30
2022-10-31T10:39:56.615Z,7.05
2022-10-31T10:42:45.270Z,7.80
2022-10-31T10:45:35.924Z,7.05
2022-10-31T10:48:12.533Z,7.60
2022-10-31T10:50:47.370Z,6.50
2022-10-31T10:53:36.324Z,7.15
2022-10-31T10:56:13.826Z,6.22
2022-10-31T10:58:43.481Z,6.85
2022-10-31T11:03:44.034Z,6.25
2022-10-31T11:06:22.925Z,6.05
2022-10-31T11:08:51.999Z,6.43
2022-10-31T11:11:31.324Z,5.82
2022-10-31T11:14:04.037Z,5.30
2022-10-31T11:16:40.486Z,5.68
2022-10-31T11:19:16.237Z,6.10
2022-10-31T11:21:49.828Z,6.13
2022-10-31T11:24:26.315Z,5.95
2022-10-31T11:27:04.727Z,5.63
2022-10-31T11:29:32.454Z,5.63
2022-10-31T11:32:02.565Z,5.45
2022-10-31T11:34:33.481Z,5.20
2022-10-31T11:37:10.674Z,6.30
2022-10-31T11:39:44.152Z,5.45
2022-10-31T11:42:12.233Z,5.68
2022-10-31T11:44:44.661Z,5.22
2022-10-31T11:47:17.254Z,5.22
2022-10-31T11:49:50.342Z,5.30
2022-10-31T11:52:22.720Z,5.40
2022-10-31T11:54:56.029Z,5.38
2022-10-31T11:57:31.819Z,5.35
2022-10-31T12:00:01.609Z,5.03
2022-10-31T12:02:29.680Z,4.95
2022-10-31T12:05:04.940Z,4.82
2022-10-31T12:07:33.183Z,5.22
2022-10-31T12:10:02.357Z,5.85
2022-10-31T12:12:54.476Z,5.10
2022-10-31T12:15:34.410Z,5.30
2022-10-31T12:18:34.869Z,5.90
2022-10-31T12:21:18.126Z,5.72
2022-10-31T12:24:00.318Z,5.53
2022-10-31T12:26:40.869Z,4.65
2022-10-31T12:29:22.057Z,5.93
2022-10-31T12:32:02.807Z,5.70
2022-10-31T12:35:04.412Z,5.30
2022-10-31T12:37:48.046Z,5.07
2022-10-31T12:40:32.643Z,5.40
2022-10-31T12:43:15.489Z,5.20
2022-10-31T12:45:55.525Z,5.00
2022-10-31T12:48:50.035Z,4.93
2022-10-31T12:51:27.533Z,4.65
2022-10-31T12:54:13.823Z,4.57
2022-10-31T12:56:51.040Z,4.40
2022-10-31T12:59:30.431Z,4.90
2022-10-31T13:02:05.399Z,5.60
2022-10-31T13:04:44.730Z,4.95
2022-10-31T13:07:16.483Z,4.55
2022-10-31T13:09:49.723Z,4.22
2022-10-31T13:12:21.357Z,5.63
2022-10-31T13:14:54.241Z,5.32
2022-10-31T13:17:32.978Z,5.28
2022-10-31T13:20:18.334Z,5.20
2022-10-31T13:22:50.225Z,4.82
2022-10-31T13:25:22.347Z,4.40
2022-10-31T13:27:55.873Z,5.05
2022-10-31T13:30:28.809Z,4.57
2022-10-31T13:33:04.571Z,4.40
2022-10-31T13:35:41.623Z,4.78
2022-10-31T13:38:20.724Z,5.07
2022-10-31T13:40:56.607Z,4.32
2022-10-31T13:43:41.867Z,3.88
2022-10-31T13:46:25.693Z,4.50
2022-10-31T13:48:53.743Z,4.25
2022-10-31T13:51:29.249Z,4.85
2022-10-31T13:54:02.790Z,5.05
2022-10-31T13:56:33.545Z,4.53
2022-10-31T13:59:20.457Z,4.72
2022-10-31T14:01:52.912Z,4.75
2022-10-31T14:04:25.498Z,4.93
2022-10-31T14:06:59.561Z,4.40
2022-10-31T14:09:31.444Z,4.15
2022-10-31T14:12:04.104Z,4.20
2022-10-31T14:14:47.473Z,4.15
2022-10-31T14:17:29.374Z,4.20
2022-10-31T14:20:25.930Z,4.38
2022-10-31T14:22:53.842Z,4.47
2022-10-31T14:25:30.877Z,4.75
2022-10-31T14:28:21.961Z,4.68
2022-10-31T14:31:04.634Z,4.45
2022-10-31T14:33:35.618Z,4.35
2022-10-31T14:36:11.974Z,4.15
2022-10-31T14:38:57.098Z,5.75
2022-10-31T14:42:17.918Z,4.40
2022-10-31T14:45:15.834Z,3.55
2022-10-31T14:47:54.819Z,4.90
2022-10-31T14:50:35.846Z,4.80
2022-10-31T14:53:07.194Z,4.72
2022-10-31T14:55:45.604Z,3.97
2022-10-31T14:58:21.050Z,4.78
2022-10-31T15:00:56.752Z,4.32
2022-10-31T15:03:32.457Z,3.92
2022-10-31T15:06:07.231Z,4.28
2022-10-31T15:08:40.270Z,4.30
2022-10-31T15:11:16.845Z,4.15
2022-10-31T15:13:47.757Z,5.00
2022-10-31T15:16:19.607Z,4.28
2022-10-31T15:18:52.607Z,4.25
2022-10-31T15:21:24.903Z,4.10
2022-10-31T15:23:56.458Z,4.20
2022-10-31T15:26:28.106Z,4.30
2022-10-31T15:29:03.459Z,4.38
2022-10-31T15:31:34.390Z,4.35
2022-10-31T15:34:09.660Z,4.35
2022-10-31T15:36:39.760Z,4.05
2022-10-31T15:39:13.256Z,4.60
2022-10-31T15:41:54.519Z,4.47
2022-10-31T15:44:27.220Z,3.70
2022-10-31T15:47:00.111Z,3.80
2022-10-31T15:49:37.500Z,3.60
2022-10-31T15:52:12.727Z,4.32
2022-10-31T15:54:51.252Z,3.72
2022-10-31T15:57:20.457Z,4.03
2022-10-31T15:59:57.132Z,4.03
2022-10-31T16:02:28.543Z,3.70
2022-10-31T16:05:00.093Z,4.13
2022-10-31T16:07:33.837Z,3.92
2022-10-31T16:10:08.101Z,4.82
2022-10-31T16:12:39.394Z,3.67
2022-10-31T16:15:16.693Z,3.70
2022-10-31T16:17:48.035Z,4.43
2022-10-31T16:20:24.109Z,4.00
2022-10-31T16:22:55.866Z,6.93
2022-10-31T16:25:30.441Z,6.93
2022-10-31T16:28:15.978Z,6.28
2022-10-31T16:30:53.673Z,6.55
2022-10-31T16:33:32.085Z,4.40
2022-10-31T16:36:29.902Z,5.00
2022-10-31T16:38:52.296Z,4.20
2022-10-31T16:41:21.084Z,3.72
2022-10-31T16:43:52.410Z,3.78
2022-10-31T16:46:26.122Z,4.75
2022-10-31T16:48:57.399Z,4.25
2022-10-31T16:51:28.010Z,4.35
2022-10-31T16:53:58.443Z,4.03
2022-10-31T16:56:30.798Z,3.78
2022-10-31T16:59:03.807Z,3.90
2022-10-31T17:01:41.392Z,4.53
2022-10-31T17:04:14.541Z,4.25
2022-10-31T17:06:43.200Z,4.07
2022-10-31T17:09:12.558Z,3.90
2022-10-31T17:11:49.500Z,4.85
2022-10-31T17:14:18.224Z,5.75
2022-10-31T17:16:45.942Z,4.70
2022-10-31T17:19:14.044Z,4.70
2022-10-31T17:21:42.110Z,4.72
2022-10-31T17:24:15.058Z,4.40
2022-10-31T17:26:43.529Z,4.80
2022-10-31T17:29:11.381Z,4.13
2022-10-31T17:31:39.952Z,4.70
2022-10-31T17:34:08.678Z,4.53
2022-10-31T17:36:37.058Z,4.20
2022-10-31T17:39:07.586Z,5.00
2022-10-31T17:41:36.777Z,4.35
2022-10-31T17:44:04.790Z,4.18
2022-10-31T17:46:32.563Z,4.05
2022-10-31T17:49:01.749Z,4.15
2022-10-31T17:51:29.552Z,4.40
2022-10-31T17:53:57.311Z,4.13
2022-10-31T17:56:25.254Z,4.47
2022-10-31T17:58:54.388Z,4.20
2022-10-31T18:01:22.161Z,4.47
2022-10-31T18:03:51.185Z,4.90
2022-10-31T18:06:18.921Z,4.43
2022-10-31T18:08:46.817Z,4.10
2022-10-31T18:11:17.227Z,4.30
2022-10-31T18:13:45.026Z,4.57
2022-10-31T18:16:16.182Z,4.88
2022-10-31T18:18:44.026Z,4.78
2022-10-31T18:21:11.802Z,4.50
2022-10-31T18:23:39.536Z,4.10
2022-10-31T18:26:07.300Z,3.97
2022-10-31T18:28:35.075Z,4.47
2022-10-31T18:31:02.899Z,4.20
2022-10-31T18:33:32.207Z,4.75
2022-10-31T18:36:12.696Z,4.05
2022-10-31T18:38:41.960Z,4.50
2022-10-31T18:41:10.348Z,4.60
2022-10-31T18:43:38.316Z,4.78
2022-10-31T18:46:08.811Z,4.32
2022-10-31T18:48:38.779Z,4.80
2022-10-31T18:51:08.357Z,4.45
2022-10-31T18:53:37.364Z,4.10
2022-10-31T18:56:12.044Z,4.20
2022-10-31T18:58:39.904Z,4.40
2022-10-31T19:01:08.594Z,4.55
2022-10-31T19:03:41.375Z,4.65
2022-10-31T19:06:12.349Z,4.05
2022-10-31T19:08:41.105Z,4.88
2022-10-31T19:11:11.665Z,4.22
2022-10-31T19:13:40.378Z,4.72
2022-10-31T19:16:10.605Z,3.95
2022-10-31T19:18:40.298Z,4.72
2022-10-31T19:21:09.030Z,4.25
2022-10-31T19:23:37.404Z,4.05
2022-10-31T19:26:05.722Z,4.05
2022-10-31T19:28:34.716Z,4.82
2022-10-31T19:31:05.321Z,4.20
2022-10-31T19:33:35.880Z,5.63
2022-10-31T19:36:08.294Z,5.28
2022-10-31T19:38:36.816Z,4.55
2022-10-31T19:41:09.146Z,4.25
2022-10-31T19:43:37.407Z,4.20
2022-10-31T19:46:05.998Z,4.18
2022-10-31T19:48:37.046Z,4.35
2022-10-31T19:51:08.372Z,4.50
2022-10-31T19:53:39.181Z,5.10
2022-10-31T19:56:12.744Z,4.80
2022-10-31T19:58:40.963Z,5.05
2022-10-31T20:01:13.331Z,4.82
2022-10-31T20:03:42.932Z,5.28
2022-10-31T20:06:18.574Z,4.47
2022-10-31T20:08:48.830Z,4.72
2022-10-31T20:11:16.930Z,5.43
2022-10-31T20:13:45.746Z,6.07
2022-10-31T20:16:15.145Z,6.57
2022-10-31T20:18:44.311Z,6.65
2022-10-31T20:21:15.575Z,6.10
2022-10-31T20:23:43.919Z,5.85
2022-10-31T20:26:15.579Z,5.15
2022-10-31T20:28:43.790Z,4.30
2022-10-31T20:31:13.824Z,4.55
2022-10-31T20:33:41.855Z,4.88
2022-10-31T20:36:10.181Z,5.53
2022-10-31T20:38:40.516Z,4.57
2022-10-31T20:41:11.320Z,5.30
2022-10-31T20:43:39.913Z,4.43
2022-10-31T20:46:09.578Z,4.85
2022-10-31T20:48:37.689Z,4.70
2022-10-31T20:51:08.129Z,5.05
2022-10-31T20:53:36.019Z,5.50
2022-10-31T20:56:08.428Z,4.85
2022-10-31T20:58:37.265Z,5.00
2022-10-31T21:01:05.939Z,4.75
2022-10-31T21:03:36.446Z,5.03
2022-10-31T21:06:08.340Z,4.90
2022-10-31T21:08:37.055Z,5.10
2022-10-31T21:11:15.629Z,4.33
2022-10-31T21:13:47.432Z,4.65
2022-10-31T21:16:19.801Z,15.87
2022-10-31T21:18:50.174Z,10.27
2022-10-31T21:21:29.131Z,6.63
2022-10-31T21:24:00.438Z,5.05
2022-10-31T21:26:33.294Z,4.90
2022-10-31T21:29:05.343Z,4.88
2022-10-31T21:31:38.413Z,5.03
2022-10-31T21:34:09.736Z,4.30
2022-10-31T21:36:37.589Z,4.32
2022-10-31T21:39:06.756Z,4.15
2022-10-31T21:41:36.437Z,4.85
2022-10-31T21:44:04.542Z,4.13
2022-10-31T21:46:41.482Z,5.07
2022-10-31T21:49:11.560Z,3.92
2022-10-31T21:51:40.826Z,4.88
2022-10-31T21:54:33.142Z,4.38
2022-10-31T21:57:07.706Z,4.32
2022-10-31T21:59:37.936Z,4.97
2022-10-31T22:02:08.536Z,4.13
2022-10-31T22:04:36.362Z,5.10
2022-10-31T22:07:06.524Z,4.47
2022-10-31T22:09:34.301Z,4.93
2022-10-31T22:12:06.595Z,4.60
2022-10-31T22:14:34.327Z,5.57
2022-10-31T22:17:04.648Z,4.35
2022-10-31T22:19:32.390Z,4.53
2022-10-31T22:22:00.343Z,5.05
2022-10-31T22:24:28.633Z,4.43
2022-10-31T22:26:56.359Z,3.67
2022-10-31T22:29:27.695Z,4.28
2022-10-31T22:31:58.855Z,4.53
2022-10-31T22:34:29.271Z,4.63
2022-10-31T22:36:57.172Z,4.25
2022-10-31T22:39:24.981Z,4.72
2022-10-31T22:41:52.669Z,4.78
2022-10-31T22:44:20.393Z,4.75
2022-10-31T22:46:49.450Z,4.43
2022-10-31T22:49:17.164Z,4.80
2022-10-31T22:51:45.748Z,5.03
2022-10-31T22:54:15.430Z,5.55
2022-10-31T22:56:43.501Z,4.90
2022-10-31T22:59:13.143Z,6.18
2022-10-31T23:01:41.014Z,5.72
2022-10-31T23:04:12.708Z,5.45
2022-10-31T23:06:40.710Z,5.55
2022-10-31T23:09:09.127Z,6.03
2022-10-31T23:11:39.869Z,5.95
2022-10-31T23:14:09.723Z,6.40
2022-10-31T23:16:39.244Z,5.30
2022-10-31T23:19:08.666Z,5.43
2022-10-31T23:21:54.789Z,5.45
2022-10-31T23:24:24.327Z,6.85
2022-10-31T23:27:08.255Z,6.25
2022-10-31T23:29:39.054Z,6.35
2022-10-31T23:32:09.566Z,6.47
2022-10-31T23:34:37.470Z,6.00
2022-10-31T23:39:36.164Z,5.80
2022-10-31T23:42:04.713Z,5.60
2022-10-31T23:44:32.530Z,5.38
2022-10-31T23:47:00.358Z,5.75
2022-10-31T23:49:28.727Z,6.60
2022-10-31T23:51:57.825Z,6.57
2022-10-31T23:54:27.954Z,6.57
2022-10-31T23:56:56.301Z,7.03
2022-10-31T23:59:23.976Z,5.97
